メインページ
METAR-TAF:

METAR-TAF

空港 :

レシフェ, ペルナンブーコ州, ブラジル

レシフェ/グアララペス・ジルベルト・フレイレ国際空港

緯度: 08-08S, 経度: 034-55W, 海抜: 19m

現時点の気象観測

当レポートは51分前の01:00(UTC)に作成
南/南西の風 6kt
気温 24°C
湿度 89%
気圧 1015 hPa
視程10km以上
高度2500ftの雲はほとんどない
高度10000ftの千切れ雲あり

METAR: SBRF 260100Z 21006KT 9999 FEW025 BKN100 24/22 Q1015

時間: 22:51 (01:51 UTC)

予報

当レポートは3時間51分前の22:00(UTC)に作成
予報は26日の 00時(UTC)から 26日の 24時(UTC)まで有効
南/南東の風 10kt
視程: 8000m
高度1800ftの雲は散在している
高度4000ftの雲は散在している
確率 40% :
26日の 03時(UTC)から 26日の 06時(UTC)まで一時的に
視程: 6000m
高度1300ftの千切れ雲あり
26日の 06時(UTC)から 26日の 07時(UTC)まで徐々に
の風 8kt
26日の 09時(UTC)から 26日の 10時(UTC)まで徐々に
南/南東の風 14kt

TAF: SBRF 252200Z 2600/2624 16010KT 8000 SCT018 SCT040 TN23/2608Z TX28 /2616Z PROB40 TEMPO 2603/2606 6000 RA BKN013 BECMG 2606/2607 18008KT BECMG 2609/2610 16014KT RMK PEU

4,000以上の空港の気象観測と天気予報(METAR報とTAF報)

利用可能な観測所は地図上に黄色い丸と赤い丸で示す。

丸の上にカーソルを重ねると観測所名を参照できる。

次にクリックすると気象観測と天気予報を参照できる。

マップの切り替え:黒色「×」印の緑ボタンをクリックして拡大、「-」印の緑ボタンをクリックして縮小、緑色の三角印をクリックして隣りの地図に切り替え


METAR-TAF: